Time;durP1;ratioP1;P1;durP2;ratioP2;P2;SDS_P1;SDS_P2;PMS_P1;PMS_P2;Temp;Humidity;BMP_temperature;BMP_pressure;BME280_temperature;BME280_humidity;BME280_pressure;Samples;Min_cycle;Max_cycle;Signal;HPM_P1;HPM_P2
2022/10/21 00:00:31;;;;;;;0.10;0.10;;;;;;;;;;6272681;22;20016;-94
2022/10/21 00:03:27;;;;;;;;;;;;;;;;;;;;;
2022/10/21 00:08:51;;;;;;;0.10;0.10;;;;;;;;;;6215754;22;20130;-96
2022/10/21 00:11:20;;;;;;;0.10;0.10;;;;;;;;;;6251252;22;20012;-95
2022/10/21 00:14:03;;;;;;;0.17;0.17;;;;;;;;;;6250961;22;20103;-95
2022/10/21 00:17:03;;;;;;;;;;;;;;;;;;;;;
2022/10/21 00:22:31;;;;;;;0.10;0.10;;;;;;;;;;6244802;22;20022;-95
2022/10/21 00:24:57;;;;;;;0.10;0.10;;;;;;;;;;6250864;22;20011;-94
2022/10/21 00:27:23;;;;;;;0.10;0.10;;;;;;;;;;6250883;22;20091;-94
2022/10/21 00:29:49;;;;;;;0.20;0.20;;;;;;;;;;6250763;22;20164;-93
2022/10/21 00:32:18;;;;;;;0.10;0.10;;;;;;;;;;6250788;22;20011;-95
2022/10/21 00:34:45;;;;;;;0.25;0.25;;;;;;;;;;6250592;22;20054;-94
2022/10/21 00:37:11;;;;;;;0.10;0.10;;;;;;;;;;6251534;22;20023;-94
2022/10/21 00:39:38;;;;;;;0.52;0.40;;;;;;;;;;6250344;22;20015;-95
2022/10/21 00:42:07;;;;;;;0.20;0.20;;;;;;;;;;6250274;22;20015;-93
2022/10/21 00:44:34;;;;;;;0.28;0.28;;;;;;;;;;6249967;22;20019;-94
2022/10/21 00:47:07;;;;;;;0.10;0.10;;;;;;;;;;6250597;22;20015;-94
2022/10/21 00:49:36;;;;;;;0.20;0.20;;;;;;;;;;6250444;22;20038;-92
2022/10/21 00:52:03;;;;;;;0.10;0.10;;;;;;;;;;6250293;22;20022;-94
2022/10/21 00:54:36;;;;;;;0.20;0.20;;;;;;;;;;6250614;22;20475;-95
2022/10/21 00:57:03;;;;;;;0.20;0.20;;;;;;;;;;6251327;22;20011;-95
2022/10/21 00:59:31;;;;;;;0.10;0.10;;;;;;;;;;6264260;22;20030;-94
2022/10/21 01:02:01;;;;;;;0.10;0.10;;;;;;;;;;6268595;22;20022;-95
2022/10/21 01:04:27;;;;;;;0.10;0.10;;;;;;;;;;6253498;22;20016;-95
2022/10/21 01:06:53;;;;;;;0.13;0.13;;;;;;;;;;6251522;22;20015;-94
2022/10/21 01:09:32;;;;;;;;;;;;;;;;;;;;;
2022/10/21 01:15:40;;;;;;;0.10;0.10;;;;;;;;;;6076763;23;20022;-96
2022/10/21 01:24:35;;;;;;;0.10;0.10;;;;;;;;;;5949816;23;20469;-95
2022/10/21 01:27:07;;;;;;;0.10;0.10;;;;;;;;;;6114652;23;20013;-96
2022/10/21 01:29:45;;;;;;;0.10;0.10;;;;;;;;;;6217308;22;20080;-95
2022/10/21 01:32:24;;;;;;;0.10;0.10;;;;;;;;;;6250204;22;20015;-94
2022/10/21 01:34:57;;;;;;;0.38;0.20;;;;;;;;;;6275333;22;20024;-96
2022/10/21 01:37:25;;;;;;;0.30;0.30;;;;;;;;;;6249776;22;20086;-95
2022/10/21 01:43:43;;;;;;;;;;;;;;;;;;;;;
2022/10/21 01:46:27;;;;;;;;;;;;;;;;;;;;;
2022/10/21 01:48:59;;;;;;;0.10;0.10;;;;;;;;;;6253477;22;20058;-94
2022/10/21 01:51:32;;;;;;;0.20;0.20;;;;;;;;;;6250921;22;20018;-95
2022/10/21 01:54:21;;;;;;;0.17;0.17;;;;;;;;;;6251869;22;20023;-96
2022/10/21 01:56:53;;;;;;;0.10;0.10;;;;;;;;;;6228683;22;20020;-96
2022/10/21 01:59:39;;;;;;;;;;;;;;;;;;;;;
2022/10/21 02:02:08;;;;;;;0.10;0.10;;;;;;;;;;6273244;22;20011;-95
2022/10/21 02:04:37;;;;;;;0.17;0.17;;;;;;;;;;6250440;22;20062;-92
2022/10/21 02:07:03;;;;;;;0.10;0.10;;;;;;;;;;6249479;22;20475;-95
2022/10/21 02:09:30;;;;;;;0.10;0.10;;;;;;;;;;6249938;22;20341;-95
2022/10/21 02:11:57;;;;;;;0.10;0.10;;;;;;;;;;6249765;22;20015;-93
2022/10/21 02:14:25;;;;;;;0.20;0.20;;;;;;;;;;6249691;22;20070;-95
2022/10/21 02:16:54;;;;;;;0.10;0.10;;;;;;;;;;6249609;22;20033;-95
2022/10/21 02:19:22;;;;;;;0.10;0.10;;;;;;;;;;6249946;22;20015;-96
2022/10/21 02:21:49;;;;;;;0.10;0.10;;;;;;;;;;6250560;22;20050;-95
2022/10/21 02:24:19;;;;;;;0.10;0.10;;;;;;;;;;6249675;22;20332;-95
2022/10/21 02:26:45;;;;;;;0.15;0.15;;;;;;;;;;6249647;22;20012;-95
2022/10/21 02:29:12;;;;;;;0.20;0.20;;;;;;;;;;6249750;22;20016;-94
2022/10/21 02:31:56;;;;;;;0.38;0.38;;;;;;;;;;6250131;22;20144;-95
2022/10/21 02:34:33;;;;;;;0.20;0.20;;;;;;;;;;6274698;22;20043;-94
2022/10/21 02:37:17;;;;;;;0.10;0.10;;;;;;;;;;6250081;22;20012;-94
2022/10/21 02:39:47;;;;;;;0.10;0.10;;;;;;;;;;6275228;22;20015;-94
2022/10/21 02:42:13;;;;;;;0.25;0.25;;;;;;;;;;6249504;22;20029;-95
2022/10/21 02:44:39;;;;;;;0.10;0.10;;;;;;;;;;6249963;22;20433;-94
2022/10/21 02:47:42;;;;;;;0.20;0.20;;;;;;;;;;6253401;22;20019;-95
2022/10/21 02:50:24;;;;;;;;;;;;;;;;;;;;;
2022/10/21 02:52:55;;;;;;;0.30;0.30;;;;;;;;;;6255920;22;20030;-96
2022/10/21 02:55:23;;;;;;;0.20;0.20;;;;;;;;;;6253668;22;20015;-93
2022/10/21 02:57:49;;;;;;;0.10;0.10;;;;;;;;;;6251445;22;20445;-94
2022/10/21 03:00:15;;;;;;;0.10;0.10;;;;;;;;;;6250500;22;20019;-96
2022/10/21 03:02:48;;;;;;;0.10;0.10;;;;;;;;;;6249994;22;20008;-94
2022/10/21 03:05:18;;;;;;;0.10;0.10;;;;;;;;;;6226033;22;20034;-93
2022/10/21 03:07:56;;;;;;;;;;;;;;;;;;;;;
2022/10/21 03:10:41;;;;;;;0.10;0.10;;;;;;;;;;6256424;22;20046;-95
2022/10/21 03:13:07;;;;;;;0.10;0.10;;;;;;;;;;6252548;22;20061;-95
2022/10/21 03:15:33;;;;;;;0.10;0.10;;;;;;;;;;6249607;22;20015;-95
2022/10/21 03:18:00;;;;;;;0.10;0.10;;;;;;;;;;6249223;22;20065;-95
2022/10/21 03:20:26;;;;;;;0.10;0.10;;;;;;;;;;6249463;22;20012;-95
2022/10/21 03:22:52;;;;;;;0.20;0.20;;;;;;;;;;6249280;22;20008;-95
2022/10/21 03:25:18;;;;;;;0.10;0.10;;;;;;;;;;6249755;22;20022;-95
2022/10/21 03:27:44;;;;;;;0.10;0.10;;;;;;;;;;6251694;22;20046;-94
2022/10/21 03:30:10;;;;;;;0.10;0.10;;;;;;;;;;6250990;22;20326;-94
2022/10/21 03:32:36;;;;;;;0.10;0.10;;;;;;;;;;6249781;22;20022;-94
2022/10/21 03:35:03;;;;;;;0.10;0.10;;;;;;;;;;6249366;22;20054;-93
2022/10/21 03:37:29;;;;;;;0.10;0.10;;;;;;;;;;6249653;22;20122;-95
2022/10/21 03:39:55;;;;;;;0.10;0.10;;;;;;;;;;6249533;22;20345;-94
2022/10/21 03:42:21;;;;;;;0.20;0.20;;;;;;;;;;6250731;22;20441;-96
2022/10/21 03:44:47;;;;;;;0.15;0.15;;;;;;;;;;6251886;22;20012;-96
2022/10/21 03:47:15;;;;;;;0.10;0.10;;;;;;;;;;6251261;22;20030;-95
2022/10/21 03:49:41;;;;;;;0.10;0.10;;;;;;;;;;6252033;22;20058;-95
2022/10/21 03:52:07;;;;;;;0.10;0.10;;;;;;;;;;6251282;22;20019;-94
2022/10/21 03:54:33;;;;;;;0.25;0.25;;;;;;;;;;6251007;22;20050;-93
2022/10/21 03:56:59;;;;;;;0.10;0.10;;;;;;;;;;6251367;22;20029;-94
2022/10/21 03:59:25;;;;;;;0.20;0.20;;;;;;;;;;6250954;22;20511;-95
2022/10/21 04:01:58;;;;;;;0.10;0.10;;;;;;;;;;6252319;22;20047;-95
2022/10/21 04:04:36;;;;;;;0.10;0.10;;;;;;;;;;6281466;22;20022;-95
2022/10/21 04:07:03;;;;;;;0.10;0.10;;;;;;;;;;6254632;22;20019;-94
2022/10/21 04:09:29;;;;;;;0.10;0.10;;;;;;;;;;6253204;22;20019;-95
2022/10/21 04:11:55;;;;;;;0.10;0.10;;;;;;;;;;6251604;22;20016;-95
2022/10/21 04:14:21;;;;;;;0.10;0.10;;;;;;;;;;6250470;22;20020;-95
2022/10/21 04:16:47;;;;;;;0.15;0.15;;;;;;;;;;6250829;22;20062;-94
2022/10/21 04:19:17;;;;;;;0.30;0.30;;;;;;;;;;6253500;22;20147;-96
2022/10/21 04:21:43;;;;;;;0.10;0.10;;;;;;;;;;6226991;22;20098;-94
2022/10/21 04:24:09;;;;;;;0.10;0.10;;;;;;;;;;6253661;22;20019;-95
2022/10/21 04:26:35;;;;;;;0.10;0.10;;;;;;;;;;6253720;22;20031;-93
2022/10/21 04:29:09;;;;;;;0.10;0.10;;;;;;;;;;6255010;22;20016;-94
2022/10/21 04:31:53;;;;;;;0.32;0.28;;;;;;;;;;6282235;22;20020;-96
2022/10/21 04:34:40;;;;;;;0.10;0.10;;;;;;;;;;6261966;22;20019;-96
2022/10/21 04:37:11;;;;;;;0.10;0.10;;;;;;;;;;6257070;22;20445;-94
2022/10/21 04:39:37;;;;;;;0.10;0.10;;;;;;;;;;6226161;22;20012;-95
2022/10/21 04:42:03;;;;;;;0.10;0.10;;;;;;;;;;6250845;22;20029;-95
2022/10/21 04:44:30;;;;;;;0.10;0.10;;;;;;;;;;6250865;22;20138;-95
2022/10/21 04:46:56;;;;;;;0.10;0.10;;;;;;;;;;6251367;22;20007;-94
2022/10/21 04:49:22;;;;;;;0.10;0.10;;;;;;;;;;6250537;22;20016;-95
2022/10/21 04:51:48;;;;;;;0.10;0.10;;;;;;;;;;6250895;22;20012;-95
2022/10/21 04:54:15;;;;;;;0.17;0.17;;;;;;;;;;6250507;22;20016;-94
2022/10/21 04:56:41;;;;;;;0.35;0.25;;;;;;;;;;6251716;22;20046;-94
2022/10/21 04:59:07;;;;;;;0.10;0.10;;;;;;;;;;6251875;22;20023;-94
2022/10/21 05:01:33;;;;;;;0.10;0.10;;;;;;;;;;6250560;22;20503;-94
2022/10/21 05:03:59;;;;;;;0.20;0.20;;;;;;;;;;6251106;22;20045;-94
2022/10/21 05:06:25;;;;;;;0.20;0.20;;;;;;;;;;6252099;22;20426;-96
2022/10/21 05:08:51;;;;;;;0.20;0.20;;;;;;;;;;6251614;22;20038;-95
2022/10/21 05:11:17;;;;;;;0.10;0.10;;;;;;;;;;6250566;22;20015;-95
2022/10/21 05:13:44;;;;;;;0.10;0.10;;;;;;;;;;6250540;22;20012;-94
2022/10/21 05:16:10;;;;;;;0.10;0.10;;;;;;;;;;6250242;22;20027;-94
2022/10/21 05:18:36;;;;;;;0.20;0.20;;;;;;;;;;6250299;22;20094;-94
2022/10/21 05:21:02;;;;;;;0.20;0.20;;;;;;;;;;6250301;22;20012;-95
2022/10/21 05:23:31;;;;;;;0.20;0.20;;;;;;;;;;6250177;22;20008;-96
2022/10/21 05:26:05;;;;;;;0.10;0.10;;;;;;;;;;6250439;22;20314;-96
2022/10/21 05:28:35;;;;;;;0.10;0.10;;;;;;;;;;6252527;22;20058;-96
2022/10/21 05:31:01;;;;;;;0.10;0.10;;;;;;;;;;6251278;22;20015;-93
2022/10/21 05:33:27;;;;;;;0.10;0.10;;;;;;;;;;6250123;22;20012;-93
2022/10/21 05:35:57;;;;;;;0.20;0.20;;;;;;;;;;6250249;22;20020;-94
2022/10/21 05:38:23;;;;;;;0.20;0.20;;;;;;;;;;6249667;22;20015;-94
2022/10/21 05:40:59;;;;;;;0.15;0.15;;;;;;;;;;6252761;22;20015;-95
2022/10/21 05:43:27;;;;;;;0.20;0.20;;;;;;;;;;6279413;22;20030;-95
2022/10/21 05:45:54;;;;;;;0.20;0.20;;;;;;;;;;6255682;22;20008;-94
2022/10/21 05:48:23;;;;;;;0.10;0.10;;;;;;;;;;6277601;22;20069;-94
2022/10/21 05:50:51;;;;;;;0.20;0.20;;;;;;;;;;6249701;22;20034;-94
2022/10/21 05:53:17;;;;;;;0.25;0.25;;;;;;;;;;6249907;22;20442;-94
2022/10/21 05:55:43;;;;;;;0.10;0.10;;;;;;;;;;6249538;22;20062;-92
2022/10/21 05:58:09;;;;;;;0.10;0.10;;;;;;;;;;6249320;22;20022;-95
2022/10/21 06:00:35;;;;;;;0.10;0.10;;;;;;;;;;6249617;22;20019;-93
2022/10/21 06:03:01;;;;;;;0.10;0.10;;;;;;;;;;6249582;22;20014;-95
2022/10/21 06:05:27;;;;;;;0.10;0.10;;;;;;;;;;6249093;22;20012;-94
2022/10/21 06:07:53;;;;;;;0.10;0.10;;;;;;;;;;6249770;22;20387;-91
2022/10/21 06:10:19;;;;;;;0.10;0.10;;;;;;;;;;6250142;22;20031;-94
2022/10/21 06:12:45;;;;;;;0.10;0.10;;;;;;;;;;6250313;22;20037;-93
2022/10/21 06:15:11;;;;;;;0.10;0.10;;;;;;;;;;6249700;22;20091;-93
2022/10/21 06:17:37;;;;;;;0.10;0.10;;;;;;;;;;6249714;22;20023;-92
2022/10/21 06:20:04;;;;;;;0.70;0.40;;;;;;;;;;6249181;22;20015;-94
2022/10/21 06:22:31;;;;;;;0.10;0.10;;;;;;;;;;6249660;22;20248;-94
2022/10/21 06:24:57;;;;;;;0.20;0.20;;;;;;;;;;6249747;22;20012;-95
2022/10/21 06:27:23;;;;;;;0.10;0.10;;;;;;;;;;6249502;22;20011;-92
2022/10/21 06:29:50;;;;;;;0.10;0.10;;;;;;;;;;6248996;22;20011;-92
2022/10/21 06:32:16;;;;;;;0.10;0.10;;;;;;;;;;6249117;22;20015;-91
2022/10/21 06:34:42;;;;;;;0.10;0.10;;;;;;;;;;6249329;22;20047;-91
2022/10/21 06:37:08;;;;;;;0.15;0.15;;;;;;;;;;6249954;22;20027;-91
2022/10/21 06:39:34;;;;;;;0.10;0.10;;;;;;;;;;6249976;22;20015;-93
2022/10/21 06:42:00;;;;;;;0.20;0.20;;;;;;;;;;6251260;22;20027;-94
2022/10/21 06:44:26;;;;;;;0.10;0.10;;;;;;;;;;6249602;22;20008;-92
2022/10/21 06:46:53;;;;;;;0.10;0.10;;;;;;;;;;6250619;22;20095;-91
2022/10/21 06:49:19;;;;;;;0.10;0.10;;;;;;;;;;6251384;22;20081;-91
2022/10/21 06:51:45;;;;;;;0.10;0.10;;;;;;;;;;6250401;22;20445;-91
2022/10/21 06:54:11;;;;;;;0.10;0.10;;;;;;;;;;6250059;22;20061;-91
2022/10/21 06:56:38;;;;;;;0.10;0.10;;;;;;;;;;6248581;22;20138;-91
2022/10/21 06:59:04;;;;;;;0.10;0.10;;;;;;;;;;6248765;22;20518;-91
2022/10/21 07:01:35;;;;;;;0.10;0.10;;;;;;;;;;6274916;22;20015;-92
2022/10/21 07:04:02;;;;;;;0.20;0.20;;;;;;;;;;6249364;22;20011;-91
2022/10/21 07:06:28;;;;;;;0.10;0.10;;;;;;;;;;6249143;22;20070;-90
2022/10/21 07:08:54;;;;;;;0.10;0.10;;;;;;;;;;6248340;22;20016;-91
2022/10/21 07:11:20;;;;;;;0.10;0.10;;;;;;;;;;6249698;22;20098;-94
2022/10/21 07:13:46;;;;;;;0.10;0.10;;;;;;;;;;6248438;22;20073;-90
2022/10/21 07:16:17;;;;;;;0.10;0.10;;;;;;;;;;6249579;22;20437;-91
2022/10/21 07:18:43;;;;;;;0.10;0.10;;;;;;;;;;6275976;22;20065;-90
2022/10/21 07:21:10;;;;;;;0.10;0.10;;;;;;;;;;6250646;22;20039;-92
2022/10/21 07:23:36;;;;;;;0.10;0.10;;;;;;;;;;6251638;22;20012;-94
2022/10/21 07:26:05;;;;;;;0.20;0.20;;;;;;;;;;6250994;22;20008;-90
2022/10/21 07:28:31;;;;;;;0.10;0.10;;;;;;;;;;6250776;22;20325;-92
2022/10/21 07:30:57;;;;;;;0.10;0.10;;;;;;;;;;6251073;22;20082;-91
2022/10/21 07:33:23;;;;;;;0.10;0.10;;;;;;;;;;6249921;22;20042;-91
2022/10/21 07:35:51;;;;;;;0.10;0.10;;;;;;;;;;6250388;22;20015;-91
2022/10/21 07:38:22;;;;;;;0.10;0.10;;;;;;;;;;6249952;22;20011;-95
2022/10/21 07:40:48;;;;;;;0.10;0.10;;;;;;;;;;6249506;22;20030;-92
2022/10/21 07:43:17;;;;;;;0.17;0.17;;;;;;;;;;6252244;22;20310;-96
2022/10/21 07:45:43;;;;;;;0.10;0.10;;;;;;;;;;6250914;22;20046;-94
2022/10/21 07:48:10;;;;;;;0.10;0.10;;;;;;;;;;6251717;22;20012;-96
2022/10/21 07:50:36;;;;;;;0.10;0.10;;;;;;;;;;6252041;22;20069;-93
2022/10/21 07:53:03;;;;;;;0.10;0.10;;;;;;;;;;6251062;22;20374;-91
2022/10/21 07:55:29;;;;;;;0.10;0.10;;;;;;;;;;6251257;22;20432;-93
2022/10/21 07:57:55;;;;;;;0.10;0.10;;;;;;;;;;6250324;22;20023;-92
2022/10/21 08:00:21;;;;;;;0.10;0.10;;;;;;;;;;6250441;22;20030;-92
2022/10/21 08:02:50;;;;;;;0.10;0.10;;;;;;;;;;6251490;22;20086;-93
2022/10/21 08:05:16;;;;;;;0.10;0.10;;;;;;;;;;6251188;22;20396;-94
2022/10/21 08:07:42;;;;;;;0.10;0.10;;;;;;;;;;6251304;22;20011;-94
2022/10/21 08:10:11;;;;;;;0.10;0.10;;;;;;;;;;6250811;22;20015;-92
2022/10/21 08:12:41;;;;;;;0.10;0.10;;;;;;;;;;6277172;22;20019;-92
2022/10/21 08:15:09;;;;;;;0.10;0.10;;;;;;;;;;6251258;22;20242;-95
2022/10/21 08:17:35;;;;;;;0.13;0.13;;;;;;;;;;6225839;22;20016;-93
2022/10/21 08:20:01;;;;;;;0.10;0.10;;;;;;;;;;6250572;22;20015;-92
2022/10/21 08:22:27;;;;;;;0.20;0.20;;;;;;;;;;6276800;22;20437;-93
2022/10/21 08:24:53;;;;;;;0.10;0.10;;;;;;;;;;6250673;22;20008;-94
2022/10/21 08:27:19;;;;;;;0.10;0.10;;;;;;;;;;6250636;22;20011;-93
2022/10/21 08:29:46;;;;;;;0.10;0.10;;;;;;;;;;6251124;22;20018;-94
2022/10/21 08:32:12;;;;;;;0.20;0.20;;;;;;;;;;6252712;22;20016;-94
2022/10/21 08:34:38;;;;;;;0.10;0.10;;;;;;;;;;6250782;22;20011;-94
2022/10/21 08:37:04;;;;;;;0.10;0.10;;;;;;;;;;6250224;22;20015;-95
2022/10/21 08:39:34;;;;;;;0.63;0.63;;;;;;;;;;6256167;22;20065;-96
2022/10/21 08:42:14;;;;;;;0.65;0.30;;;;;;;;;;6275856;22;20016;-93
2022/10/21 08:44:45;;;;;;;0.10;0.10;;;;;;;;;;6276382;22;20022;-92
2022/10/21 08:47:19;;;;;;;0.10;0.10;;;;;;;;;;6250272;22;20007;-92
2022/10/21 08:49:58;;;;;;;0.10;0.10;;;;;;;;;;6250708;22;20016;-94
2022/10/21 08:52:30;;;;;;;0.10;0.10;;;;;;;;;;6250369;22;20179;-93
2022/10/21 08:54:58;;;;;;;0.10;0.10;;;;;;;;;;6251211;22;20047;-93
2022/10/21 08:57:24;;;;;;;0.20;0.20;;;;;;;;;;6250729;22;20023;-94
2022/10/21 08:59:51;;;;;;;0.10;0.10;;;;;;;;;;6250835;22;20360;-94
2022/10/21 09:02:26;;;;;;;0.10;0.10;;;;;;;;;;6250974;22;20082;-94
2022/10/21 09:04:53;;;;;;;0.10;0.10;;;;;;;;;;6276141;22;20008;-92
2022/10/21 09:07:28;;;;;;;0.55;0.28;;;;;;;;;;6250186;22;20015;-94
2022/10/21 09:09:56;;;;;;;0.10;0.10;;;;;;;;;;6250642;22;20011;-92
2022/10/21 09:12:25;;;;;;;0.10;0.10;;;;;;;;;;6250845;22;20325;-93
2022/10/21 09:15:00;;;;;;;0.10;0.10;;;;;;;;;;6275838;22;20445;-92
2022/10/21 09:17:32;;;;;;;0.10;0.10;;;;;;;;;;6250483;22;20433;-92
2022/10/21 09:20:01;;;;;;;0.10;0.10;;;;;;;;;;6275836;22;20064;-93
2022/10/21 09:22:36;;;;;;;0.10;0.10;;;;;;;;;;6275090;22;20065;-93
2022/10/21 09:25:04;;;;;;;0.10;0.10;;;;;;;;;;6274902;22;20383;-92
2022/10/21 09:27:32;;;;;;;0.10;0.10;;;;;;;;;;6250068;22;20509;-94
2022/10/21 09:29:58;;;;;;;0.20;0.20;;;;;;;;;;6276112;22;20267;-93
2022/10/21 09:32:29;;;;;;;0.10;0.10;;;;;;;;;;6250207;22;20051;-91
2022/10/21 09:34:56;;;;;;;0.68;0.68;;;;;;;;;;6250028;22;20031;-91
2022/10/21 09:37:27;;;;;;;0.10;0.10;;;;;;;;;;6274306;22;20062;-91
2022/10/21 09:39:56;;;;;;;0.10;0.10;;;;;;;;;;6248789;22;20011;-91
2022/10/21 09:42:22;;;;;;;0.10;0.10;;;;;;;;;;6249035;22;20012;-91
2022/10/21 09:44:48;;;;;;;0.10;0.10;;;;;;;;;;6249296;22;20010;-91
2022/10/21 09:47:18;;;;;;;0.10;0.10;;;;;;;;;;6223583;22;20337;-91
2022/10/21 09:49:45;;;;;;;0.10;0.10;;;;;;;;;;6249207;22;20102;-91
2022/10/21 09:52:12;;;;;;;0.10;0.10;;;;;;;;;;6249304;22;20016;-91
2022/10/21 09:54:39;;;;;;;0.20;0.20;;;;;;;;;;6273889;22;20019;-91
2022/10/21 09:57:16;;;;;;;0.10;0.10;;;;;;;;;;6248571;22;20020;-91
2022/10/21 09:59:49;;;;;;;0.10;0.10;;;;;;;;;;6276047;22;20051;-90
2022/10/21 10:02:17;;;;;;;0.10;0.10;;;;;;;;;;6248961;22;20015;-90
2022/10/21 10:04:44;;;;;;;0.10;0.10;;;;;;;;;;6249378;22;20042;-92
2022/10/21 10:07:27;;;;;;;0.10;0.10;;;;;;;;;;6274118;22;20467;-92
2022/10/21 10:09:54;;;;;;;0.20;0.20;;;;;;;;;;6249711;22;20494;-92
2022/10/21 10:12:20;;;;;;;0.10;0.10;;;;;;;;;;6248864;22;20024;-92
2022/10/21 10:14:46;;;;;;;0.10;0.10;;;;;;;;;;6249825;22;20444;-92
2022/10/21 10:17:20;;;;;;;0.17;0.17;;;;;;;;;;6223539;22;20027;-92
2022/10/21 10:20:05;;;;;;;0.10;0.10;;;;;;;;;;6249950;22;20022;-91
2022/10/21 10:22:31;;;;;;;0.10;0.10;;;;;;;;;;6275677;22;20015;-93
2022/10/21 10:25:16;;;;;;;0.20;0.20;;;;;;;;;;6249727;22;20095;-91
2022/10/21 10:27:53;;;;;;;0.20;0.20;;;;;;;;;;6275144;22;20008;-92
2022/10/21 10:30:20;;;;;;;0.25;0.25;;;;;;;;;;6250258;22;20500;-93
2022/10/21 10:32:46;;;;;;;0.10;0.10;;;;;;;;;;6254719;22;20016;-93
2022/10/21 10:35:17;;;;;;;0.10;0.10;;;;;;;;;;6250759;22;20015;-96
2022/10/21 10:37:45;;;;;;;0.10;0.10;;;;;;;;;;6251013;22;20030;-94
2022/10/21 10:40:16;;;;;;;0.10;0.10;;;;;;;;;;6250760;22;20015;-90
2022/10/21 10:42:42;;;;;;;0.10;0.10;;;;;;;;;;6249812;22;20007;-92
2022/10/21 10:45:13;;;;;;;0.20;0.20;;;;;;;;;;6251250;22;20012;-91
2022/10/21 10:47:42;;;;;;;0.10;0.10;;;;;;;;;;6251507;22;20034;-91
2022/10/21 10:50:27;;;;;;;0.10;0.10;;;;;;;;;;6253864;22;20015;-90
2022/10/21 10:53:20;;;;;;;0.10;0.10;;;;;;;;;;6276502;22;20513;-89
2022/10/21 10:55:46;;;;;;;0.10;0.10;;;;;;;;;;6252208;22;20018;-91
2022/10/21 10:58:12;;;;;;;0.10;0.10;;;;;;;;;;6252285;22;20405;-92
2022/10/21 11:00:40;;;;;;;0.20;0.20;;;;;;;;;;6254598;22;20038;-93
2022/10/21 11:03:06;;;;;;;0.10;0.10;;;;;;;;;;6253565;22;20043;-92
2022/10/21 11:05:39;;;;;;;0.10;0.10;;;;;;;;;;6278994;22;20026;-92
2022/10/21 11:08:08;;;;;;;0.10;0.10;;;;;;;;;;6253336;22;20435;-91
2022/10/21 11:11:09;;;;;;;0.10;0.10;;;;;;;;;;6254906;22;20016;-95
2022/10/21 11:14:18;;;;;;;;;;;;;;;;;;;;;
2022/10/21 11:17:16;;;;;;;0.15;0.15;;;;;;;;;;6283316;22;20016;-96
2022/10/21 11:31:23;;;;;;;;;;;;;;;;;;;;;
2022/10/21 11:33:51;;;;;;;0.10;0.10;;;;;;;;;;6293741;22;20455;-95
2022/10/21 11:36:44;;;;;;;0.10;0.10;;;;;;;;;;6261048;22;20016;-95
2022/10/21 11:39:23;;;;;;;0.10;0.10;;;;;;;;;;6261014;22;20030;-94
2022/10/21 11:42:12;;;;;;;0.10;0.10;;;;;;;;;;6284974;22;20062;-96
2022/10/21 11:45:08;;;;;;;0.10;0.10;;;;;;;;;;6277606;22;20400;-94
2022/10/21 11:47:59;;;;;;;0.10;0.10;;;;;;;;;;6184386;22;20015;-94
2022/10/21 11:50:33;;;;;;;0.10;0.10;;;;;;;;;;6307969;22;20026;-95
2022/10/21 11:53:18;;;;;;;0.10;0.10;;;;;;;;;;6255761;22;20011;-96
2022/10/21 11:55:56;;;;;;;0.10;0.10;;;;;;;;;;6257146;22;20052;-95
2022/10/21 11:58:33;;;;;;;0.10;0.10;;;;;;;;;;6255471;22;20034;-96
2022/10/21 12:01:23;;;;;;;0.10;0.10;;;;;;;;;;6282654;22;20098;-96
2022/10/21 12:04:11;;;;;;;0.10;0.10;;;;;;;;;;6281459;22;20007;-96
2022/10/21 12:06:56;;;;;;;0.10;0.10;;;;;;;;;;6307623;22;20067;-94
2022/10/21 12:09:27;;;;;;;0.10;0.10;;;;;;;;;;6281285;22;20094;-94
2022/10/21 12:12:02;;;;;;;0.10;0.10;;;;;;;;;;6257155;22;20156;-94
2022/10/21 12:14:53;;;;;;;0.10;0.10;;;;;;;;;;6281664;22;20019;-96
2022/10/21 12:17:20;;;;;;;0.13;0.13;;;;;;;;;;6281886;22;20011;-94
2022/10/21 12:19:50;;;;;;;0.10;0.10;;;;;;;;;;6256125;22;20011;-92
2022/10/21 12:22:16;;;;;;;0.10;0.10;;;;;;;;;;6256403;22;20440;-93
2022/10/21 12:24:49;;;;;;;0.10;0.10;;;;;;;;;;6255744;22;20038;-95
2022/10/21 12:27:32;;;;;;;0.10;0.10;;;;;;;;;;6257073;22;20091;-95
2022/10/21 12:30:15;;;;;;;0.10;0.10;;;;;;;;;;6256674;22;20015;-95
2022/10/21 12:33:05;;;;;;;0.10;0.10;;;;;;;;;;6282250;22;20015;-96
2022/10/21 12:35:51;;;;;;;0.10;0.10;;;;;;;;;;6283160;22;20198;-93
2022/10/21 12:38:36;;;;;;;0.20;0.20;;;;;;;;;;6260135;22;20041;-94
2022/10/21 12:41:25;;;;;;;0.20;0.20;;;;;;;;;;6307969;22;20019;-92
2022/10/21 12:43:54;;;;;;;0.10;0.10;;;;;;;;;;6259472;22;20027;-91
2022/10/21 12:46:23;;;;;;;0.30;0.30;;;;;;;;;;6292945;22;20318;-92
2022/10/21 12:48:49;;;;;;;0.10;0.10;;;;;;;;;;6262293;22;20013;-92
2022/10/21 12:51:21;;;;;;;0.10;0.10;;;;;;;;;;6255873;22;20011;-92
2022/10/21 12:53:49;;;;;;;0.20;0.20;;;;;;;;;;6287920;22;20069;-92
2022/10/21 12:56:24;;;;;;;0.10;0.10;;;;;;;;;;6266152;22;20042;-91
2022/10/21 12:58:50;;;;;;;0.10;0.10;;;;;;;;;;6283073;22;20011;-91
2022/10/21 13:01:36;;;;;;;0.10;0.10;;;;;;;;;;6255099;22;20360;-91
2022/10/21 13:04:02;;;;;;;0.17;0.17;;;;;;;;;;6280554;22;20012;-93
2022/10/21 13:06:47;;;;;;;0.10;0.10;;;;;;;;;;6255634;22;20035;-91
2022/10/21 13:09:31;;;;;;;0.10;0.10;;;;;;;;;;6280224;22;20011;-90
2022/10/21 13:12:16;;;;;;;0.10;0.10;;;;;;;;;;6279844;22;20175;-90
2022/10/21 13:15:01;;;;;;;0.10;0.10;;;;;;;;;;6255422;22;20015;-94
2022/10/21 13:17:27;;;;;;;0.10;0.10;;;;;;;;;;6255531;22;20015;-90
2022/10/21 13:20:05;;;;;;;0.20;0.20;;;;;;;;;;6305543;22;20051;-92
2022/10/21 13:22:35;;;;;;;0.10;0.10;;;;;;;;;;6307080;22;20381;-90
2022/10/21 13:25:20;;;;;;;0.20;0.20;;;;;;;;;;6254640;22;20098;-90
2022/10/21 13:27:53;;;;;;;0.10;0.10;;;;;;;;;;6254602;22;20011;-90
2022/10/21 13:30:46;;;;;;;0.10;0.10;;;;;;;;;;6254148;22;20019;-89
2022/10/21 13:33:16;;;;;;;0.20;0.20;;;;;;;;;;6301171;22;20015;-88
2022/10/21 13:36:01;;;;;;;0.32;0.32;;;;;;;;;;6279727;22;20050;-89
2022/10/21 13:38:28;;;;;;;0.10;0.10;;;;;;;;;;6279853;22;20015;-89
2022/10/21 13:40:55;;;;;;;0.10;0.10;;;;;;;;;;6254242;22;20007;-89
2022/10/21 13:43:27;;;;;;;0.10;0.10;;;;;;;;;;6254263;22;20011;-89
2022/10/21 13:45:57;;;;;;;0.10;0.10;;;;;;;;;;6254718;22;20086;-90
2022/10/21 13:48:24;;;;;;;0.10;0.10;;;;;;;;;;6254032;22;20069;-90
2022/10/21 13:50:50;;;;;;;0.20;0.20;;;;;;;;;;6254010;22;20022;-90
2022/10/21 13:53:19;;;;;;;0.15;0.15;;;;;;;;;;6254415;22;20022;-93
2022/10/21 14:32:04;;;;;;;0.10;0.10;;;;;;;;;;6276198;22;20020;-92
2022/10/21 14:34:34;;;;;;;0.10;0.10;;;;;;;;;;6249118;22;20012;-92
2022/10/21 14:37:04;;;;;;;0.10;0.10;;;;;;;;;;6218411;23;20015;-93
2022/10/21 14:39:33;;;;;;;0.10;0.10;;;;;;;;;;6244334;22;20095;-91
2022/10/21 14:42:17;;;;;;;0.10;0.10;;;;;;;;;;6219094;23;20084;-92
2022/10/21 14:44:43;;;;;;;0.10;0.10;;;;;;;;;;6218717;23;20019;-91
2022/10/21 14:47:19;;;;;;;0.10;0.10;;;;;;;;;;6218574;23;20012;-93
2022/10/21 14:49:46;;;;;;;0.10;0.10;;;;;;;;;;6218080;23;20016;-92
2022/10/21 14:52:20;;;;;;;0.10;0.10;;;;;;;;;;6219066;23;20016;-92
2022/10/21 14:54:52;;;;;;;0.10;0.10;;;;;;;;;;6218295;23;20078;-91
2022/10/21 14:57:26;;;;;;;0.10;0.10;;;;;;;;;;6218606;23;20072;-92
2022/10/21 14:59:52;;;;;;;0.10;0.10;;;;;;;;;;6218466;23;20012;-91
2022/10/21 15:02:19;;;;;;;0.20;0.20;;;;;;;;;;6219001;23;20091;-92
2022/10/21 15:04:51;;;;;;;0.10;0.10;;;;;;;;;;6218481;23;20091;-91
2022/10/21 15:07:24;;;;;;;0.10;0.10;;;;;;;;;;6217826;23;20012;-91
2022/10/21 15:09:50;;;;;;;;;;;;;;;;;;6219110;23;20102;-92
2022/10/21 15:12:19;;;;;;;0.10;0.10;;;;;;;;;;6218453;23;19962;-91
2022/10/21 15:14:45;;;;;;;0.10;0.10;;;;;;;;;;6218581;23;20019;-92
2022/10/21 15:17:13;;;;;;;0.10;0.10;;;;;;;;;;6218503;23;20012;-92
2022/10/21 15:19:46;;;;;;;0.10;0.10;;;;;;;;;;6220398;23;20012;-92
2022/10/21 15:22:18;;;;;;;0.10;0.10;;;;;;;;;;6218966;23;20008;-93
2022/10/21 15:24:45;;;;;;;0.40;0.40;;;;;;;;;;6218500;23;20012;-92
2022/10/21 15:27:17;;;;;;;0.10;0.10;;;;;;;;;;6218667;23;20020;-92
2022/10/21 15:29:44;;;;;;;0.10;0.10;;;;;;;;;;6218116;23;20016;-91
2022/10/21 15:32:12;;;;;;;0.10;0.10;;;;;;;;;;6217970;23;20016;-91
2022/10/21 15:34:38;;;;;;;0.75;0.63;;;;;;;;;;6217908;23;20052;-91
2022/10/21 15:37:06;;;;;;;0.10;0.10;;;;;;;;;;6217971;23;20448;-90
2022/10/21 15:39:32;;;;;;;0.20;0.20;;;;;;;;;;6219780;23;20016;-91
2022/10/21 15:41:58;;;;;;;0.10;0.10;;;;;;;;;;6219505;23;20019;-92
2022/10/21 15:44:28;;;;;;;0.10;0.10;;;;;;;;;;6220604;23;20051;-94
2022/10/21 15:46:59;;;;;;;0.10;0.10;;;;;;;;;;6222095;23;20012;-95
2022/10/21 15:49:53;;;;;;;0.10;0.10;;;;;;;;;;6221984;23;20059;-95
2022/10/21 15:52:24;;;;;;;0.10;0.10;;;;;;;;;;6225121;23;20074;-95
2022/10/21 15:54:58;;;;;;;0.10;0.10;;;;;;;;;;6221832;23;20016;-95
2022/10/21 15:57:24;;;;;;;0.10;0.10;;;;;;;;;;6222507;23;20012;-96
2022/10/21 15:59:52;;;;;;;0.10;0.10;;;;;;;;;;6220660;23;20571;-95
2022/10/21 16:02:18;;;;;;;0.10;0.10;;;;;;;;;;6221247;23;20032;-95
2022/10/21 16:04:45;;;;;;;0.10;0.10;;;;;;;;;;6220229;23;20063;-95
2022/10/21 16:07:15;;;;;;;0.10;0.10;;;;;;;;;;6219759;23;20061;-96
2022/10/21 16:09:41;;;;;;;0.10;0.10;;;;;;;;;;6219833;23;20015;-95
2022/10/21 16:12:08;;;;;;;0.10;0.10;;;;;;;;;;6219884;23;20016;-92
2022/10/21 16:14:34;;;;;;;0.10;0.10;;;;;;;;;;6220532;23;20103;-93
2022/10/21 16:17:00;;;;;;;0.10;0.10;;;;;;;;;;6219970;23;20012;-93
2022/10/21 16:19:26;;;;;;;0.10;0.10;;;;;;;;;;6219885;23;20047;-92
2022/10/21 16:21:52;;;;;;;0.10;0.10;;;;;;;;;;6220037;23;20012;-93